Time;durP1;ratioP1;P1;durP2;ratioP2;P2;SDS_P1;SDS_P2;PMS_P1;PMS_P2;Temp;Humidity;BMP_temperature;BMP_pressure;BME280_temperature;BME280_humidity;BME280_pressure;Samples;Min_cycle;Max_cycle;Signal;HPM_P1;HPM_P2
2021/03/25 00:01:56;;;;;;;13.95;6.90;;;;;;;0.33;63.20;99180.63;1827157;77;21150;-62
2021/03/25 00:04:24;;;;;;;;;;;;;;;0.34;63.03;99178.55;1829959;77;21292;-60
2021/03/25 00:06:57;;;;;;;15.98;7.97;;;;;;;0.34;63.09;99177.69;1827351;78;20130;-60
2021/03/25 00:09:30;;;;;;;12.00;6.95;;;;;;;0.33;63.21;99173.38;1827050;77;21173;-61
2021/03/25 00:11:59;;;;;;;18.48;7.78;;;;;;;0.33;63.12;99173.38;1827078;78;21158;-62
2021/03/25 00:14:29;;;;;;;14.47;7.37;;;;;;;0.33;63.38;99168.30;1827045;78;21147;-63
2021/03/25 00:16:56;;;;;;;16.12;7.03;;;;;;;0.30;63.41;99168.14;1827290;78;21372;-60
2021/03/25 00:19:25;;;;;;;15.05;8.23;;;;;;;0.30;63.43;99168.14;1827470;78;21273;-62
2021/03/25 00:21:54;;;;;;;15.65;8.38;;;;;;;0.29;63.46;99169.81;1827080;77;21280;-60
2021/03/25 00:24:22;;;;;;;17.52;7.33;;;;;;;0.29;63.48;99166.41;1827340;78;21268;-60
2021/03/25 00:26:50;;;;;;;16.67;7.72;;;;;;;0.29;63.53;99159.66;1827069;78;21142;-62
2021/03/25 00:29:18;;;;;;;17.95;8.70;;;;;;;0.28;63.46;99160.47;1827068;78;21138;-62
2021/03/25 00:31:47;;;;;;;17.77;8.83;;;;;;;0.30;63.47;99168.14;1827193;78;21135;-59
2021/03/25 00:34:16;;;;;;;16.57;7.62;;;;;;;0.31;63.59;99162.30;1827129;78;21146;-59
2021/03/25 00:36:44;;;;;;;13.68;7.00;;;;;;;0.32;63.80;99160.22;1827059;78;21178;-57
2021/03/25 00:39:14;;;;;;;14.45;7.45;;;;;;;0.32;63.76;99165.30;1827306;78;21181;-59
2021/03/25 00:41:42;;;;;;;15.78;8.03;;;;;;;0.30;63.75;99165.60;1827432;78;21133;-58
2021/03/25 00:44:13;;;;;;;15.08;7.42;;;;;;;0.28;63.77;99164.27;1827228;78;21280;-63
2021/03/25 00:46:42;;;;;;;18.33;9.10;;;;;;;0.29;63.76;99166.00;1827621;77;21288;-60
2021/03/25 00:49:11;;;;;;;15.13;8.40;;;;;;;0.28;63.85;99169.34;1827311;78;21173;-63
2021/03/25 00:51:39;;;;;;;20.52;8.85;;;;;;;0.26;64.05;99165.84;1827446;77;21122;-61
2021/03/25 00:54:08;;;;;;;20.48;8.68;;;;;;;0.23;64.37;99166.05;1827130;78;21300;-62
2021/03/25 00:56:39;;;;;;;16.10;8.38;;;;;;;0.17;64.65;99160.25;1827264;78;21276;-61
2021/03/25 00:59:08;;;;;;;;;;;;;;;0.15;64.72;99160.55;1829972;78;21153;-63
2021/03/25 01:01:36;;;;;;;15.38;7.53;;;;;;;0.12;64.83;99157.45;1827346;77;20146;-62
2021/03/25 01:04:05;;;;;;;15.00;8.05;;;;;;;0.11;64.90;99158.26;1827220;78;21143;-62
2021/03/25 01:06:33;;;;;;;17.65;8.25;;;;;;;0.14;64.91;99163.90;1827206;77;21158;-61
2021/03/25 01:09:03;;;;;;;18.45;8.40;;;;;;;0.13;65.16;99162.16;1827525;78;21150;-61
2021/03/25 01:11:31;;;;;;;17.17;8.28;;;;;;;0.07;65.48;99159.27;1827141;77;21158;-62
2021/03/25 01:14:06;;;;;;;19.80;8.70;;;;;;;-0.02;66.21;99167.25;1827247;78;21138;-61
2021/03/25 01:16:39;;;;;;;16.93;8.18;;;;;;;-0.11;66.49;99162.52;1827505;77;21347;-63
2021/03/25 01:19:12;;;;;;;14.23;8.03;;;;;;;-0.17;66.75;99167.66;1827519;78;21130;-61
2021/03/25 01:21:40;;;;;;;13.15;6.92;;;;;;;-0.20;66.95;99167.09;1827236;78;21205;-60
2021/03/25 01:24:10;;;;;;;15.58;7.53;;;;;;;-0.22;66.98;99165.73;1827577;78;21134;-62
2021/03/25 01:26:38;;;;;;;19.80;8.78;;;;;;;-0.20;66.84;99166.20;1827283;78;21288;-62
2021/03/25 01:29:07;;;;;;;13.35;7.42;;;;;;;-0.19;66.85;99166.70;1827589;78;21549;-61
2021/03/25 01:31:35;;;;;;;17.05;8.13;;;;;;;-0.22;66.82;99167.00;1827271;77;21430;-60
2021/03/25 01:34:08;;;;;;;15.32;7.22;;;;;;;-0.28;66.94;99160.33;1827153;78;21248;-61
2021/03/25 01:36:36;;;;;;;16.17;7.90;;;;;;;-0.34;66.94;99159.95;1827177;78;21356;-60
2021/03/25 01:39:05;;;;;;;15.88;8.00;;;;;;;-0.42;67.04;99154.85;1827189;78;21284;-61
2021/03/25 01:41:39;;;;;;;15.58;7.37;;;;;;;-0.48;67.19;99152.84;1827267;77;21189;-61
2021/03/25 01:44:11;;;;;;;;;;;;;;;-0.50;67.23;99156.08;1829975;77;21115;-61
2021/03/25 01:46:40;;;;;;;21.02;8.48;;;;;;;-0.54;67.29;99153.74;1825161;78;20218;-61
2021/03/25 01:49:15;;;;;;;16.62;8.05;;;;;;;-0.59;67.36;99153.00;1827332;78;21307;-61
2021/03/25 01:52:00;;;;;;;17.10;8.63;;;;;;;-0.62;67.36;99158.77;1827556;78;21673;-59
2021/03/25 01:55:04;;;;;;;17.48;8.13;;;;;;;-0.67;67.31;99157.23;1824341;77;21103;-62
2021/03/25 01:58:08;;;;;;;16.77;7.08;;;;;;;-0.68;67.38;99160.56;1812702;78;21099;-61
2021/03/25 02:01:19;;;;;;;19.87;7.55;;;;;;;-0.69;67.28;99159.19;1772283;78;21217;-61
2021/03/25 02:04:20;;;;;;;12.82;6.62;;;;;;;-0.72;67.01;99159.89;1812858;78;21143;-63
2021/03/25 02:06:59;;;;;;;13.62;7.12;;;;;;;-0.72;66.84;99160.28;1812921;78;21604;-60
2021/03/25 02:09:49;;;;;;;16.25;6.83;;;;;;;-0.79;66.79;99156.54;1812733;78;21119;-61
2021/03/25 02:12:39;;;;;;;14.93;6.75;;;;;;;-0.82;66.81;99161.40;1810124;79;21163;-61
2021/03/25 02:15:27;;;;;;;16.37;8.60;;;;;;;-0.84;66.85;99154.13;1812820;78;21549;-61
2021/03/25 02:18:07;;;;;;;15.13;7.47;;;;;;;-0.90;66.82;99158.81;1812885;78;21095;-60
2021/03/25 02:21:04;;;;;;;16.45;8.65;;;;;;;-0.89;66.90;99144.08;1889907;76;22175;-60
2021/03/25 02:23:59;;;;;;;17.32;8.90;;;;;;;-0.94;66.86;99145.11;1791817;80;21177;-61
2021/03/25 02:26:38;;;;;;;13.70;7.17;;;;;;;-0.94;66.83;99152.70;1771692;78;21181;-59
2021/03/25 02:29:25;;;;;;;15.45;7.55;;;;;;;-0.96;66.92;99147.94;1801047;80;21130;-60
2021/03/25 02:31:58;;;;;;;12.80;6.72;;;;;;;-0.97;67.00;99151.23;1789895;80;21299;-62
2021/03/25 02:34:34;;;;;;;16.80;7.60;;;;;;;-0.96;67.17;99144.13;1810692;79;21186;-62
2021/03/25 02:37:11;;;;;;;12.60;6.58;;;;;;;-0.95;67.10;99149.67;1791517;80;21201;-60
2021/03/25 02:39:58;;;;;;;15.23;7.15;;;;;;;-0.92;67.17;99146.45;1791481;80;21177;-59
2021/03/25 02:42:44;;;;;;;14.93;7.25;;;;;;;-0.95;67.16;99150.06;1791808;80;21166;-60
2021/03/25 02:45:28;;;;;;;13.48;6.85;;;;;;;-0.96;67.15;99150.87;1761295;80;21232;-62
2021/03/25 02:48:08;;;;;;;14.68;7.50;;;;;;;-0.98;67.13;99151.16;1791496;80;21319;-60
2021/03/25 02:50:47;;;;;;;14.10;6.35;;;;;;;-1.02;67.06;99155.55;1791727;80;21157;-63
2021/03/25 02:53:26;;;;;;;12.82;6.35;;;;;;;-1.07;67.04;99145.53;1791773;80;21255;-61
2021/03/25 02:55:58;;;;;;;13.50;6.67;;;;;;;-1.10;67.20;99157.22;1791815;80;21549;-61
2021/03/25 02:58:29;;;;;;;18.42;6.72;;;;;;;-1.09;67.42;99153.06;1791510;80;21163;-61
2021/03/25 03:01:06;;;;;;;15.40;6.75;;;;;;;-1.11;67.52;99155.49;1791536;80;21162;-62
2021/03/25 03:03:39;;;;;;;13.35;6.85;;;;;;;-1.10;67.50;99154.69;1791464;80;21367;-60
2021/03/25 03:06:35;;;;;;;12.05;6.78;;;;;;;-1.11;67.45;99152.95;1791778;80;21142;-60
2021/03/25 03:09:10;;;;;;;15.45;8.63;;;;;;;-1.14;67.56;99156.58;1791080;80;21711;-62
2021/03/25 03:11:45;;;;;;;18.12;8.55;;;;;;;-1.18;67.38;99153.37;1791131;80;21576;-61
2021/03/25 03:14:34;;;;;;;17.12;9.80;;;;;;;-1.22;67.61;99150.19;1791530;80;21243;-60
2021/03/25 03:17:16;;;;;;;16.37;8.78;;;;;;;-1.26;67.55;99158.37;1791455;80;21284;-59
2021/03/25 03:20:17;;;;;;;14.45;7.60;;;;;;;-1.31;67.64;99156.81;1782593;80;21711;-59
2021/03/25 03:22:48;;;;;;;15.83;7.50;;;;;;;-1.36;67.58;99149.73;1842589;77;21178;-62
2021/03/25 03:25:23;;;;;;;20.43;8.00;;;;;;;-1.38;67.78;99156.35;1846105;77;21683;-62
2021/03/25 03:28:02;;;;;;;15.03;7.00;;;;;;;-1.42;67.74;99163.30;1775098;80;21182;-59
2021/03/25 03:30:37;;;;;;;19.62;7.87;;;;;;;-1.44;67.94;99157.26;1846246;77;21115;-60
2021/03/25 03:33:31;;;;;;;13.88;7.35;;;;;;;-1.47;67.94;99156.68;1845989;77;21260;-63
2021/03/25 03:36:08;;;;;;;13.38;7.55;;;;;;;-1.47;68.26;99157.08;1835943;78;21704;-62
2021/03/25 03:38:49;;;;;;;12.13;6.87;;;;;;;-1.49;68.02;99158.63;1774615;81;21166;-60
2021/03/25 03:41:30;;;;;;;14.93;6.95;;;;;;;-1.52;67.90;99156.79;1846237;78;21696;-59
2021/03/25 03:44:09;;;;;;;13.88;6.85;;;;;;;-1.55;67.97;99154.95;1845781;78;21241;-61
2021/03/25 03:46:38;;;;;;;14.47;6.95;;;;;;;-1.59;68.32;99155.52;1846053;77;21194;-60
2021/03/25 03:49:37;;;;;;;14.47;7.03;;;;;;;-1.59;68.36;99154.26;1766777;81;21174;-61
2021/03/25 03:52:17;;;;;;;12.75;6.62;;;;;;;-1.59;68.41;99163.11;1817403;78;21139;-60
2021/03/25 03:54:51;;;;;;;14.98;7.08;;;;;;;-1.58;68.85;99154.77;1817072;78;21545;-63
2021/03/25 03:57:42;;;;;;;16.50;6.87;;;;;;;-1.56;69.31;99151.91;1817399;78;21136;-62
2021/03/25 04:00:35;;;;;;;14.63;6.40;;;;;;;-1.56;69.31;99151.91;1811512;79;22081;-60
2021/03/25 04:03:30;;;;;;;13.85;6.65;;;;;;;-1.50;68.95;99156.86;1826334;78;21557;-63
2021/03/25 04:06:15;;;;;;;18.70;6.62;;;;;;;-1.47;68.75;99155.81;1817633;78;21183;-63
2021/03/25 04:09:21;;;;;;;10.38;6.08;;;;;;;-1.46;68.86;99155.02;1769971;78;21297;-63
2021/03/25 04:12:07;;;;;;;12.88;6.58;;;;;;;-1.43;68.83;99152.27;1812710;78;21552;-60
2021/03/25 04:14:48;;;;;;;14.50;7.90;;;;;;;-1.41;68.65;99157.04;1812989;78;21553;-62
2021/03/25 04:17:31;;;;;;;12.30;5.90;;;;;;;-1.38;68.50;99161.41;1812868;78;21143;-61
2021/03/25 04:20:09;;;;;;;12.55;6.12;;;;;;;-1.32;68.92;99163.08;1812620;78;21151;-60
2021/03/25 04:22:51;;;;;;;12.80;5.95;;;;;;;-1.28;68.85;99164.98;1790971;79;21277;-63
2021/03/25 04:25:30;;;;;;;13.30;6.22;;;;;;;-1.25;68.58;99160.50;1812978;78;21146;-62
2021/03/25 04:28:09;;;;;;;12.53;5.87;;;;;;;-1.20;68.52;99167.59;1812249;79;21668;-63
2021/03/25 04:30:43;;;;;;;12.33;6.17;;;;;;;-1.15;68.19;99164.94;1811471;79;21216;-60
2021/03/25 04:33:18;;;;;;;10.98;6.10;;;;;;;-1.11;67.96;99168.55;1812818;79;21276;-60
2021/03/25 04:35:48;;;;;;;12.70;6.12;;;;;;;-1.04;67.68;99173.57;1774332;80;21198;-60
2021/03/25 04:38:24;;;;;;;15.48;6.37;;;;;;;-0.95;67.37;99166.13;1813017;79;21166;-63
2021/03/25 04:40:57;;;;;;;11.95;6.00;;;;;;;-0.82;66.93;99170.27;1774323;81;21313;-63
2021/03/25 04:43:29;;;;;;;12.35;6.10;;;;;;;-0.59;66.60;99170.34;1811182;79;21358;-60
2021/03/25 04:46:02;;;;;;;12.82;5.97;;;;;;;0.14;65.19;99171.51;1812789;79;21296;-62
2021/03/25 04:48:34;;;;;;;15.55;6.80;;;;;;;0.97;63.06;99166.67;1810884;79;21348;-61
2021/03/25 04:51:17;;;;;;;16.90;6.87;;;;;;;1.78;60.40;99173.72;1774329;81;21311;-61
2021/03/25 04:53:50;;;;;;;13.28;7.03;;;;;;;2.44;58.35;99178.10;1812896;79;21163;-60
2021/03/25 04:56:22;;;;;;;11.43;6.22;;;;;;;3.05;56.35;99174.91;1812975;79;21166;-60
2021/03/25 04:59:00;;;;;;;14.78;8.28;;;;;;;3.63;54.41;99177.81;1774692;81;21288;-59
2021/03/25 05:01:31;;;;;;;14.07;7.25;;;;;;;4.12;52.67;99176.88;1812770;79;21292;-62
2021/03/25 05:04:04;;;;;;;14.05;7.50;;;;;;;4.57;50.96;99181.16;1813092;79;21320;-61
2021/03/25 05:09:28;;;;;;;11.80;6.97;;;;;;;5.29;48.81;99183.82;1754758;80;21596;-59
2021/03/25 05:11:57;;;;;;;13.05;7.65;;;;;;;5.73;47.68;99188.31;1754699;80;21301;-60
2021/03/25 05:14:28;;;;;;;13.70;7.15;;;;;;;6.09;46.95;99190.38;1754846;81;21155;-60
2021/03/25 05:17:25;;;;;;;12.90;6.72;;;;;;;6.57;45.40;99200.86;1754855;80;21569;-62
2021/03/25 05:20:08;;;;;;;13.60;6.22;;;;;;;6.92;44.59;99192.91;1731639;80;21155;-62
2021/03/25 05:23:08;;;;;;;13.05;7.25;;;;;;;7.26;43.41;99201.59;1754772;80;21150;-60
2021/03/25 05:25:51;;;;;;;13.53;6.60;;;;;;;7.70;42.41;99204.06;1745139;81;21150;-60
2021/03/25 05:28:37;;;;;;;;;;;;;;;8.14;41.68;99206.02;1744708;82;21268;-62
2021/03/25 05:31:09;;;;;;;11.93;7.12;;;;;;;8.61;40.37;99204.60;1754773;80;20135;-63
2021/03/25 05:33:38;;;;;;;13.55;6.30;;;;;;;9.08;39.59;99204.78;1754688;82;21150;-62
2021/03/25 05:36:11;;;;;;;15.60;7.05;;;;;;;9.46;38.66;99208.94;1754747;80;21273;-63
2021/03/25 05:38:40;;;;;;;11.38;6.53;;;;;;;9.85;38.09;99207.96;1754550;80;21179;-61
2021/03/25 05:41:28;;;;;;;14.87;7.62;;;;;;;10.17;37.20;99215.80;1754559;80;21158;-62
2021/03/25 05:44:26;;;;;;;12.63;6.87;;;;;;;10.59;36.82;99217.37;1754758;80;21672;-62
2021/03/25 05:47:02;;;;;;;11.95;5.85;;;;;;;11.08;35.33;99214.16;1754707;80;21138;-64
2021/03/25 05:50:14;;;;;;;11.75;6.15;;;;;;;11.47;34.49;99216.81;1741848;82;21134;-64
2021/03/25 05:53:00;;;;;;;12.85;6.47;;;;;;;11.81;33.83;99222.34;1755058;80;21288;-63
2021/03/25 05:55:50;;;;;;;11.33;6.53;;;;;;;12.20;33.24;99221.42;1754552;80;21155;-61
2021/03/25 05:58:26;;;;;;;12.40;6.15;;;;;;;12.55;32.46;99221.70;1754700;81;21277;-62
2021/03/25 06:01:20;;;;;;;16.00;6.95;;;;;;;12.93;32.00;99228.42;1754432;80;21163;-65
2021/03/25 06:04:14;;;;;;;10.72;6.10;;;;;;;13.40;31.31;99226.94;1754913;80;21166;-65
2021/03/25 06:06:57;;;;;;;13.93;6.37;;;;;;;13.77;30.40;99233.55;1754828;80;21305;-63
2021/03/25 06:09:40;;;;;;;10.63;5.35;;;;;;;14.11;29.68;99237.91;1786803;80;21126;-62
2021/03/25 06:12:36;;;;;;;12.70;5.65;;;;;;;14.46;29.27;99237.51;1790341;79;21174;-62
2021/03/25 06:15:12;;;;;;;12.40;6.35;;;;;;;14.85;28.42;99242.25;1790240;79;21136;-62
2021/03/25 06:18:01;;;;;;;10.70;5.80;;;;;;;15.14;28.16;99243.06;1789637;79;21276;-64
2021/03/25 06:20:56;;;;;;;11.93;6.00;;;;;;;15.45;27.43;99253.79;1789726;79;21134;-62
2021/03/25 06:23:52;;;;;;;8.63;5.17;;;;;;;15.59;27.13;99248.92;1789728;80;21265;-63
2021/03/25 06:26:31;;;;;;;11.63;7.00;;;;;;;16.23;26.25;99255.95;1749473;80;21644;-65
2021/03/25 06:29:16;;;;;;;10.93;5.65;;;;;;;16.40;25.86;99264.95;1790515;79;21268;-62
2021/03/25 06:32:01;;;;;;;10.53;5.87;;;;;;;16.40;25.86;99264.95;1790264;79;21154;-65
2021/03/25 06:34:47;;;;;;;11.05;4.97;;;;;;;16.76;25.53;99255.09;1789702;79;21320;-65
2021/03/25 06:37:24;;;;;;;10.03;5.80;;;;;;;16.87;24.94;99263.73;1782268;80;21158;-60
2021/03/25 06:40:07;;;;;;;11.85;5.85;;;;;;;17.64;24.92;99257.64;1769917;79;21130;-63
2021/03/25 06:42:40;;;;;;;11.15;7.15;;;;;;;18.81;23.75;99264.62;1789045;80;21275;-67
2021/03/25 06:45:44;;;;;;;11.88;6.58;;;;;;;19.12;23.73;99264.91;1789253;79;21253;-65
2021/03/25 06:48:19;;;;;;;14.03;6.10;;;;;;;20.14;22.67;99268.46;1787946;79;21130;-64
2021/03/25 06:50:51;;;;;;;9.70;5.72;;;;;;;20.86;21.57;99267.16;1784831;80;21150;-61
2021/03/25 06:53:32;;;;;;;7.15;4.33;;;;;;;21.03;21.48;99264.96;1785373;79;21181;-62
2021/03/25 06:56:06;;;;;;;7.42;3.37;;;;;;;21.66;19.74;99268.48;1790156;79;21145;-64
2021/03/25 06:58:47;;;;;;;5.87;3.25;;;;;;;21.14;19.57;99270.37;1789819;80;21157;-69
2021/03/25 07:01:31;;;;;;;;;;;;;;;20.41;19.74;99276.59;1800930;79;21367;-65
2021/03/25 07:04:10;;;;;;;8.88;3.58;;;;;;;19.85;20.01;99273.06;1797368;79;20170;-63
2021/03/25 07:06:39;;;;;;;5.60;3.15;;;;;;;19.48;20.33;99276.41;1743763;82;21277;-66
2021/03/25 07:09:10;;;;;;;8.83;4.15;;;;;;;19.28;20.67;99272.02;1700868;83;21327;-66
2021/03/25 07:11:39;;;;;;;5.60;2.67;;;;;;;19.16;20.72;99270.52;1710683;82;21165;-67
2021/03/25 07:14:16;;;;;;;6.72;3.52;;;;;;;19.05;19.88;99270.69;1727062;80;21178;-67
2021/03/25 07:16:49;;;;;;;5.58;3.15;;;;;;;18.55;20.52;99271.13;1720118;82;22173;-66
2021/03/25 07:19:22;;;;;;;8.30;3.25;;;;;;;17.95;20.86;99269.86;1769212;79;21221;-66
2021/03/25 07:21:54;;;;;;;7.15;3.58;;;;;;;17.90;21.37;99269.91;1755298;80;21633;-64
2021/03/25 07:24:34;;;;;;;6.78;2.47;;;;;;;18.47;20.99;99273.42;1751470;80;21293;-65
2021/03/25 07:27:19;;;;;;;7.05;3.02;;;;;;;18.68;20.12;99275.70;1754364;79;21173;-66
2021/03/25 07:30:08;;;;;;;6.65;2.65;;;;;;;18.87;19.48;99279.73;1754584;80;21167;-66
2021/03/25 07:32:50;;;;;;;5.53;2.60;;;;;;;18.86;19.38;99274.09;1750485;80;21166;-64
2021/03/25 07:35:32;;;;;;;7.47;2.62;;;;;;;18.82;18.79;99272.41;1754581;80;21155;-66
2021/03/25 07:38:05;;;;;;;8.05;2.02;;;;;;;18.70;19.25;99270.00;1754596;81;21147;-68
2021/03/25 07:40:37;;;;;;;7.53;2.50;;;;;;;18.95;19.00;99264.36;1767186;80;21613;-66
2021/03/25 07:43:24;;;;;;;4.53;2.22;;;;;;;19.09;18.60;99266.28;1772285;80;21162;-66
2021/03/25 07:46:08;;;;;;;9.23;3.83;;;;;;;18.84;18.32;99262.80;1771885;80;21721;-65
2021/03/25 07:48:36;;;;;;;;;;;;;;;18.28;19.08;99261.96;1765912;79;21303;-66
2021/03/25 07:51:14;;;;;;;11.83;6.83;;;;;;;18.48;19.25;99256.42;1754896;82;20231;-65
2021/03/25 07:53:44;;;;;;;12.60;7.97;;;;;;;18.74;18.98;99252.05;1754580;81;21314;-64
2021/03/25 07:56:16;;;;;;;9.75;5.65;;;;;;;18.39;18.97;99249.61;1754732;81;21116;-65
2021/03/25 07:58:48;;;;;;;7.37;3.75;;;;;;;18.27;19.02;99257.64;1758385;80;21152;-66
2021/03/25 08:01:23;;;;;;;5.60;3.08;;;;;;;17.90;19.02;99249.48;1762207;80;21310;-65
2021/03/25 08:03:58;;;;;;;6.75;4.83;;;;;;;17.13;19.18;99241.28;1754710;82;21190;-65
2021/03/25 08:06:37;;;;;;;7.72;4.08;;;;;;;16.39;20.13;99240.66;1771693;80;21733;-64
2021/03/25 08:09:09;;;;;;;4.78;2.45;;;;;;;16.36;20.39;99239.39;1803502;79;21308;-63
2021/03/25 08:11:57;;;;;;;7.58;2.87;;;;;;;16.35;19.34;99241.98;1822120;79;21166;-68
2021/03/25 08:14:29;;;;;;;5.58;2.90;;;;;;;16.38;19.68;99247.17;1822305;79;21138;-68
2021/03/25 08:17:24;;;;;;;6.95;2.47;;;;;;;15.88;19.75;99237.55;1822368;79;21131;-64
2021/03/25 08:20:04;;;;;;;6.90;2.60;;;;;;;15.03;20.46;99235.70;1822453;79;21099;-66
2021/03/25 08:22:49;;;;;;;6.58;3.52;;;;;;;14.73;20.50;99236.22;1822431;79;21264;-65
2021/03/25 08:25:32;;;;;;;8.08;3.25;;;;;;;14.42;21.08;99235.33;1822221;78;21170;-66
2021/03/25 08:28:33;;;;;;;3.62;2.00;;;;;;;14.19;21.29;99235.77;1822110;78;21134;-73
2021/03/25 08:31:27;;;;;;;3.65;1.95;;;;;;;14.04;21.15;99245.28;1790283;80;21213;-65
2021/03/25 08:34:25;;;;;;;5.17;2.20;;;;;;;14.01;21.25;99237.47;1799062;79;21274;-68
2021/03/25 08:37:39;;;;;;;6.58;2.40;;;;;;;14.10;21.28;99235.34;1795019;79;21122;-72
2021/03/25 08:40:19;;;;;;;5.55;2.92;;;;;;;14.30;21.40;99237.95;1790365;79;21310;-65
2021/03/25 08:42:56;;;;;;;6.45;2.40;;;;;;;14.02;20.93;99250.90;1780010;80;21301;-66
2021/03/25 08:45:32;;;;;;;8.65;2.62;;;;;;;14.02;20.93;99250.90;1790230;80;21555;-64
2021/03/25 08:48:11;;;;;;;7.47;2.65;;;;;;;13.51;21.22;99242.12;1797214;79;21161;-64
2021/03/25 08:51:18;;;;;;;4.92;2.22;;;;;;;13.51;21.22;99242.12;1810726;79;21124;-63
2021/03/25 08:54:03;;;;;;;4.17;2.37;;;;;;;12.93;21.73;99242.67;1817878;79;21292;-65
2021/03/25 08:56:54;;;;;;;7.42;2.75;;;;;;;12.05;22.91;99257.94;1789341;79;21175;-65
2021/03/25 08:59:39;;;;;;;6.65;3.00;;;;;;;11.67;23.75;99239.41;1802132;79;21122;-63
2021/03/25 09:02:27;;;;;;;5.80;2.40;;;;;;;11.84;23.88;99246.92;1802959;79;21352;-62
2021/03/25 09:05:10;;;;;;;7.25;2.95;;;;;;;11.96;23.51;99238.47;1789875;79;21537;-64
2021/03/25 09:07:39;;;;;;;9.58;2.67;;;;;;;11.77;23.42;99227.02;1799995;79;21138;-65
2021/03/25 09:10:17;;;;;;;4.08;2.20;;;;;;;11.30;24.10;99238.99;1770259;80;21186;-64
2021/03/25 09:12:45;;;;;;;5.30;2.47;;;;;;;11.27;24.45;99233.77;1784520;80;21344;-65
2021/03/25 09:15:15;;;;;;;6.12;2.33;;;;;;;11.12;24.84;99233.17;1784809;79;21328;-66
2021/03/25 09:18:06;;;;;;;6.47;2.75;;;;;;;10.70;24.72;99228.27;1765365;80;21127;-65
2021/03/25 09:20:38;;;;;;;;;;;;;;;10.33;25.23;99236.72;1787640;79;21313;-66
2021/03/25 09:23:32;;;;;;;5.72;2.87;;;;;;;9.78;26.23;99225.88;1785019;80;20138;-64
2021/03/25 09:26:04;;;;;;;7.92;3.42;;;;;;;9.25;26.87;99225.70;1740314;82;21135;-64
2021/03/25 09:28:59;;;;;;;9.45;3.20;;;;;;;8.81;27.93;99228.64;1898059;75;22704;-64
2021/03/25 09:31:34;;;;;;;6.60;2.65;;;;;;;8.48;27.89;99229.17;1807457;79;21196;-63
2021/03/25 09:34:25;;;;;;;4.50;2.30;;;;;;;8.09;28.19;99235.88;1831774;78;21145;-66
2021/03/25 09:37:07;;;;;;;5.67;2.75;;;;;;;7.89;28.84;99228.55;1807260;79;21162;-65
2021/03/25 09:40:05;;;;;;;10.35;3.58;;;;;;;7.76;29.34;99231.22;1812759;78;21136;-71
2021/03/25 09:42:33;;;;;;;9.25;3.22;;;;;;;7.75;29.63;99226.02;1640001;87;21274;-64
2021/03/25 09:45:23;;;;;;;6.15;3.00;;;;;;;7.81;29.94;99224.50;1658252;86;21580;-64
2021/03/25 09:48:01;;;;;;;8.83;3.27;;;;;;;7.79;29.83;99225.28;1652807;85;21185;-66
2021/03/25 09:50:31;;;;;;;6.67;3.55;;;;;;;7.67;30.04;99221.11;1686125;85;21176;-65
2021/03/25 09:53:16;;;;;;;7.97;3.98;;;;;;;7.66;30.10;99216.77;1676678;85;21517;-65
2021/03/25 09:56:06;;;;;;;11.22;3.50;;;;;;;7.75;30.28;99226.02;1677227;85;21258;-65
2021/03/25 09:58:48;;;;;;;6.83;3.20;;;;;;;7.70;30.10;99218.61;1648807;86;21232;-64
2021/03/25 10:01:51;;;;;;;7.80;3.40;;;;;;;7.60;29.84;99222.20;1652541;86;21726;-64
2021/03/25 10:04:39;;;;;;;5.58;3.02;;;;;;;7.61;30.17;99219.25;1671947;86;21321;-65
2021/03/25 10:07:15;;;;;;;5.70;3.22;;;;;;;7.60;30.14;99214.92;1671883;86;21142;-63
2021/03/25 10:09:58;;;;;;;10.15;3.95;;;;;;;7.46;30.40;99219.70;1671886;86;21320;-64
2021/03/25 10:12:48;;;;;;;13.43;4.78;;;;;;;7.34;30.76;99203.95;1671586;85;21186;-65
2021/03/25 10:15:42;;;;;;;9.28;3.60;;;;;;;7.18;30.96;99219.34;1657521;86;21149;-64
2021/03/25 10:18:28;;;;;;;7.03;3.30;;;;;;;7.08;31.15;99219.48;1637150;86;21170;-65
2021/03/25 10:21:18;;;;;;;14.55;2.70;;;;;;;7.07;31.20;99219.42;1671973;86;21368;-64
2021/03/25 10:23:54;;;;;;;6.65;2.75;;;;;;;7.14;31.44;99217.50;1671743;85;21669;-64
2021/03/25 10:26:40;;;;;;;5.60;2.70;;;;;;;7.24;31.10;99209.66;1643081;87;21176;-64
2021/03/25 10:29:19;;;;;;;6.33;2.87;;;;;;;7.33;31.03;99209.92;1671655;85;21221;-64
2021/03/25 10:31:52;;;;;;;6.45;3.22;;;;;;;7.48;30.93;99219.72;1674622;86;21185;-63
2021/03/25 10:34:40;;;;;;;7.70;3.90;;;;;;;7.49;30.66;99217.20;1647417;87;21193;-64
2021/03/25 10:37:34;;;;;;;7.05;3.00;;;;;;;7.43;30.77;99213.20;1671594;86;21173;-63
2021/03/25 10:40:10;;;;;;;6.62;2.83;;;;;;;7.44;31.04;99211.50;1671521;85;21794;-64
2021/03/25 10:42:42;;;;;;;5.12;2.90;;;;;;;7.58;30.81;99211.05;1670918;85;21177;-64
2021/03/25 10:45:18;;;;;;;7.15;3.15;;;;;;;7.65;30.27;99210.78;1671499;85;21629;-64
2021/03/25 10:48:07;;;;;;;11.43;3.60;;;;;;;7.72;30.31;99204.11;1659691;86;21355;-64
2021/03/25 10:50:47;;;;;;;5.62;2.85;;;;;;;7.81;30.19;99213.33;1670919;86;21621;-64
2021/03/25 10:53:20;;;;;;;7.60;3.05;;;;;;;7.82;30.27;99207.38;1670331;86;21378;-64
2021/03/25 10:55:52;;;;;;;7.25;3.12;;;;;;;7.93;30.37;99200.80;1671334;86;21311;-64
2021/03/25 10:58:25;;;;;;;7.47;3.58;;;;;;;8.04;30.38;99197.23;1669152;85;21340;-64
2021/03/25 11:01:19;;;;;;;6.72;3.10;;;;;;;8.12;30.25;99192.28;1657626;86;21347;-64
2021/03/25 11:03:53;;;;;;;12.05;2.70;;;;;;;8.20;30.19;99197.19;1652621;87;21174;-64
2021/03/25 11:06:24;;;;;;;6.20;3.20;;;;;;;8.21;29.91;99188.62;1652374;86;21197;-64
2021/03/25 11:08:54;;;;;;;6.78;2.70;;;;;;;8.29;29.36;99191.38;1652206;87;21205;-64
2021/03/25 11:11:24;;;;;;;6.97;3.17;;;;;;;8.33;29.42;99187.64;1651390;87;21189;-64
2021/03/25 11:14:22;;;;;;;11.05;3.17;;;;;;;8.42;29.36;99191.75;1660773;86;21182;-64
2021/03/25 13:26:30;;;;;;;5.33;2.67;;;;;;;7.87;27.86;99136.42;1625984;88;21572;-66
2021/03/25 13:28:58;;;;;;;6.15;2.98;;;;;;;7.71;27.82;99126.58;1614847;88;21369;-66
2021/03/25 13:31:26;;;;;;;6.35;2.92;;;;;;;7.66;27.35;99128.16;1646138;86;21165;-65
2021/03/25 13:33:54;;;;;;;9.45;4.17;;;;;;;7.60;27.51;99128.46;1647955;86;21161;-67
2021/03/25 13:36:22;;;;;;;10.20;4.08;;;;;;;7.58;27.81;99130.15;1644340;87;21221;-68
2021/03/25 13:38:52;;;;;;;8.73;3.87;;;;;;;7.63;28.01;99133.23;1644149;86;21300;-67
2021/03/25 13:41:20;;;;;;;8.30;3.40;;;;;;;7.65;28.15;99124.73;1644449;87;21331;-65
2021/03/25 13:43:48;;;;;;;8.10;3.40;;;;;;;7.66;28.16;99124.30;1644250;87;21181;-63
2021/03/25 13:46:15;;;;;;;8.73;3.20;;;;;;;7.61;28.39;99126.37;1644180;87;21149;-63
2021/03/25 13:48:45;;;;;;;9.00;3.00;;;;;;;7.59;28.53;99129.30;1644090;86;21161;-64
2021/03/25 13:51:14;;;;;;;11.12;3.90;;;;;;;7.55;28.82;99127.48;1644138;86;21189;-67
2021/03/25 13:53:41;;;;;;;5.28;3.05;;;;;;;7.52;28.79;99126.13;1618183;89;21333;-64
2021/03/25 13:56:10;;;;;;;7.28;3.12;;;;;;;7.51;29.03;99126.10;1644147;87;21213;-63
2021/03/25 13:58:40;;;;;;;6.30;2.75;;;;;;;7.47;28.96;99121.28;1644083;87;21177;-65
2021/03/25 14:01:10;;;;;;;7.30;3.47;;;;;;;7.44;28.89;99124.20;1647247;87;21192;-67
2021/03/25 14:03:38;;;;;;;13.08;4.08;;;;;;;7.42;29.09;99117.73;1613049;88;21222;-67
2021/03/25 14:06:06;;;;;;;6.75;3.67;;;;;;;7.41;29.06;99121.13;1613363;88;21218;-64
2021/03/25 14:08:34;;;;;;;5.80;3.00;;;;;;;7.41;28.99;99122.84;1614274;89;21355;-66
2021/03/25 14:11:04;;;;;;;6.70;3.25;;;;;;;7.40;29.02;99115.53;1613983;88;21174;-63
2021/03/25 14:13:32;;;;;;;6.28;2.60;;;;;;;7.43;29.11;99125.91;1614124;88;21193;-67
2021/03/25 14:16:02;;;;;;;8.55;3.10;;;;;;;7.47;28.77;99119.13;1614281;88;21193;-67
2021/03/25 14:18:30;;;;;;;8.43;3.52;;;;;;;7.47;28.65;99120.00;1610017;89;21340;-62
2021/03/25 14:21:00;;;;;;;6.85;3.55;;;;;;;7.45;28.72;99117.80;1638369;85;21184;-66
2021/03/25 14:23:28;;;;;;;8.98;4.10;;;;;;;7.46;28.79;99124.69;1637139;86;21185;-65
2021/03/25 14:25:56;;;;;;;9.18;3.50;;;;;;;7.50;28.83;99121.35;1637064;88;21323;-64
2021/03/25 14:28:28;;;;;;;8.40;4.15;;;;;;;7.53;28.77;99121.45;1636996;88;21169;-66
2021/03/25 14:30:57;;;;;;;10.60;4.15;;;;;;;7.56;28.55;99129.66;1637380;88;21318;-65
2021/03/25 14:33:25;;;;;;;8.68;4.17;;;;;;;7.57;28.59;99123.25;1637001;88;21238;-65
2021/03/25 14:35:56;;;;;;;9.90;4.33;;;;;;;7.57;28.61;99119.83;1637258;86;21198;-64
2021/03/25 14:38:26;;;;;;;14.60;4.05;;;;;;;7.56;28.55;99120.24;1637268;88;21157;-64
2021/03/25 14:40:56;;;;;;;7.53;4.00;;;;;;;7.53;28.66;99118.89;1637196;86;21604;-64